Monarch, Colorado
Current Conditions -  °F | °C
As of 1:25 PM on Tuesday 21 Oct 2014 (Local Time) from KMYP Reporting Station
Overcast Overcast  
Wind Chill: 32°   Ceiling: 4800
Heat Index: 39°   Visibility: 10mi
Dew Point: 30°   Wind: 12mph
Humidity: 70%   Direction: 230°SW
Pressure: 30.46"   Gusts: NA
Location:  38.54°N, 106.31°W
Report Text: KMYP 211925Z AUTO 23010KT 10SM OVC048 04/M01 A3046 RMK AO2 LTG DSNT NW
Loading
Personal Weather Stations






























Interactive Weather Map
Tropical Storm Tracking
New forecast layout! Learn more

10-Day Weather Forecast

Advertisements
Track Severe Weather on mobile